Time;durP1;ratioP1;P1;durP2;ratioP2;P2;SDS_P1;SDS_P2;PMS_P1;PMS_P2;Temp;Humidity;BMP_temperature;BMP_pressure;BME280_temperature;BME280_humidity;BME280_pressure;Samples;Min_cycle;Max_cycle;Signal;HPM_P1;HPM_P2
2022/11/13 00:00:44;;;;;;;4.38;3.35;;;;;;;19.32;55.48;98165.81;10501813;28;20056;-59
2022/11/13 00:06:22;;;;;;;4.07;3.20;;;;;;;19.30;55.39;98163.41;10535392;28;20380;-55
2022/11/13 00:12:00;;;;;;;4.17;3.40;;;;;;;19.30;55.31;98173.41;10529104;28;20483;-58
2022/11/13 00:17:38;;;;;;;3.60;3.30;;;;;;;19.28;55.38;98160.19;10483514;28;20299;-59
2022/11/13 00:23:17;;;;;;;4.80;3.33;;;;;;;19.28;55.32;98167.50;10495437;28;20063;-59
2022/11/13 00:28:57;;;;;;;3.43;3.10;;;;;;;19.27;55.42;98164.00;10522846;28;20097;-58
2022/11/13 00:34:35;;;;;;;3.60;3.00;;;;;;;19.26;55.33;98165.06;10528567;28;20316;-59
2022/11/13 00:40:14;;;;;;;3.55;3.00;;;;;;;19.25;55.36;98173.44;10542456;28;20044;-60
2022/11/13 00:45:52;;;;;;;3.40;3.10;;;;;;;19.23;55.16;98157.56;10537241;28;20048;-60
2022/11/13 00:51:30;;;;;;;4.47;3.30;;;;;;;19.23;55.20;98156.72;10540018;28;20047;-59
2022/11/13 00:57:08;;;;;;;;;;;;;;;19.21;55.03;98153.50;10535813;28;20299;-59
2022/11/13 01:02:47;;;;;;;4.07;3.37;;;;;;;19.20;55.09;98162.72;10523870;28;19924;-59
2022/11/13 01:08:25;;;;;;;3.58;3.20;;;;;;;19.19;55.13;98153.00;10551500;28;20040;-59
2022/11/13 01:14:03;;;;;;;3.90;3.33;;;;;;;19.19;55.09;98136.78;10538101;28;20487;-59
2022/11/13 01:19:41;;;;;;;4.53;3.20;;;;;;;19.17;55.16;98137.91;10483230;28;20053;-58
2022/11/13 01:25:19;;;;;;;3.60;3.27;;;;;;;19.15;55.09;98134.69;10524799;28;20619;-60
2022/11/13 01:30:57;;;;;;;4.53;3.40;;;;;;;19.14;55.13;98122.25;10519250;28;20048;-59
2022/11/13 01:36:35;;;;;;;3.20;2.90;;;;;;;19.13;55.07;98119.84;10531056;28;20060;-58
2022/11/13 01:42:13;;;;;;;3.50;3.17;;;;;;;19.13;55.08;98117.13;10553965;28;20094;-59
2022/11/13 01:47:52;;;;;;;3.72;3.42;;;;;;;19.12;55.04;98120.94;10535864;28;20101;-59
2022/11/13 01:53:30;;;;;;;3.40;3.10;;;;;;;19.11;54.97;98119.31;10535169;28;20487;-59
2022/11/13 01:59:12;;;;;;;3.50;3.20;;;;;;;19.09;55.00;98108.84;10511946;28;20294;-59
2022/11/13 02:04:50;;;;;;;3.65;2.97;;;;;;;19.09;54.94;98108.00;10515101;28;20373;-56
2022/11/13 02:10:28;;;;;;;3.42;3.13;;;;;;;19.07;54.86;98094.81;10522980;28;20055;-59
2022/11/13 02:16:08;;;;;;;4.53;3.30;;;;;;;19.06;54.98;98101.28;10520389;28;20059;-59
2022/11/13 02:22:03;;;;;;;3.53;2.92;;;;;;;19.05;54.83;98086.19;10508594;28;20488;-59
2022/11/13 02:27:49;;;;;;;4.45;3.20;;;;;;;19.04;54.82;98081.88;10522988;28;20036;-59
2022/11/13 02:33:32;;;;;;;3.40;2.90;;;;;;;19.04;54.79;98067.56;10499488;28;20060;-60
2022/11/13 02:39:12;;;;;;;3.28;2.97;;;;;;;19.02;54.85;98062.47;10537617;28;20044;-59
2022/11/13 02:44:50;;;;;;;3.33;3.03;;;;;;;19.02;54.84;98062.47;10538231;28;20051;-59
2022/11/13 02:50:28;;;;;;;3.60;3.08;;;;;;;19.00;54.75;98059.25;10531067;28;20178;-59
2022/11/13 02:56:06;;;;;;;3.53;3.20;;;;;;;19.00;54.78;98056.53;10522868;28;20499;-58
2022/11/13 03:01:46;;;;;;;;;;;;;;;18.98;54.43;98064.13;10506398;28;20052;-59
2022/11/13 03:07:24;;;;;;;3.33;3.00;;;;;;;18.97;54.58;98065.22;10528648;28;20303;-59
2022/11/13 03:13:02;;;;;;;3.70;3.40;;;;;;;18.97;54.64;98057.09;10550478;28;20040;-59
2022/11/13 03:18:41;;;;;;;3.13;2.83;;;;;;;18.95;54.60;98062.00;10514638;28;20344;-55
2022/11/13 03:24:19;;;;;;;2.83;2.63;;;;;;;18.94;54.63;98069.31;10531972;28;20301;-57
2022/11/13 03:29:58;;;;;;;;;;;;;;;18.94;54.40;98065.81;10519850;28;20070;-59
2022/11/13 03:35:36;;;;;;;2.90;2.65;;;;;;;18.91;54.65;98063.66;10510508;28;19943;-59
2022/11/13 03:41:14;;;;;;;3.42;3.10;;;;;;;18.90;54.69;98064.78;10521983;28;20384;-59
2022/11/13 03:46:52;;;;;;;3.35;3.05;;;;;;;18.90;54.68;98067.47;10546617;28;20047;-58
2022/11/13 03:52:30;;;;;;;3.03;2.72;;;;;;;18.88;54.61;98054.25;10527934;28;20063;-58
2022/11/13 03:58:09;;;;;;;3.55;3.25;;;;;;;18.87;54.62;98052.63;10534782;28;20048;-59
2022/11/13 04:03:47;;;;;;;;;;;;;;;18.87;54.27;98036.44;10496689;28;20549;-58
2022/11/13 04:09:25;;;;;;;3.13;2.80;;;;;;;18.86;54.51;98034.06;10523385;28;19924;-58
2022/11/13 04:15:04;;;;;;;3.22;3.00;;;;;;;18.85;54.53;98025.13;10512776;28;20071;-59
2022/11/13 04:20:43;;;;;;;3.72;3.20;;;;;;;18.84;54.59;98038.94;10524341;28;20411;-59
2022/11/13 04:26:21;;;;;;;3.28;2.97;;;;;;;18.83;54.61;98037.31;10531956;28;20039;-58
2022/11/13 04:31:59;;;;;;;3.50;3.10;;;;;;;18.82;54.56;98038.41;10523864;28;20052;-59
2022/11/13 04:37:37;;;;;;;3.30;3.00;;;;;;;18.80;54.52;98041.41;10525656;28;20052;-59
2022/11/13 04:43:15;;;;;;;3.08;2.80;;;;;;;18.78;54.57;98038.97;10522669;28;20294;-59
2022/11/13 04:48:54;;;;;;;4.18;2.80;;;;;;;18.78;54.34;98038.16;10499177;28;20431;-59
2022/11/13 04:54:32;;;;;;;3.08;2.78;;;;;;;18.78;54.49;98049.75;10539236;28;20039;-59
2022/11/13 05:00:11;;;;;;;3.15;2.85;;;;;;;18.76;54.52;98046.53;10529376;28;20097;-58
2022/11/13 05:05:49;;;;;;;3.22;2.97;;;;;;;18.75;54.47;98042.22;10523659;28;20105;-58
2022/11/13 05:11:27;;;;;;;3.20;2.90;;;;;;;18.74;54.42;98035.22;10529951;28;20059;-58
2022/11/13 05:17:07;;;;;;;2.88;2.65;;;;;;;18.73;54.41;98041.72;10517077;28;20055;-59
2022/11/13 05:22:46;;;;;;;3.22;2.90;;;;;;;18.72;54.42;98037.41;10510095;28;20105;-59
2022/11/13 05:28:25;;;;;;;2.80;2.60;;;;;;;18.71;54.35;98035.78;10546797;28;20044;-59
2022/11/13 05:34:04;;;;;;;3.28;2.97;;;;;;;18.70;54.28;98030.69;10513354;28;20091;-59
2022/11/13 05:39:42;;;;;;;3.03;2.72;;;;;;;18.71;54.34;98032.31;10501272;28;20515;-59
2022/11/13 05:45:21;;;;;;;2.63;2.42;;;;;;;18.68;54.30;98041.78;10526620;28;20052;-59
2022/11/13 05:51:08;;;;;;;2.70;2.50;;;;;;;18.68;54.33;98027.47;10507377;28;20071;-59
2022/11/13 05:56:46;;;;;;;3.13;2.83;;;;;;;18.67;54.33;98021.28;10516051;28;20053;-59
2022/11/13 06:02:25;;;;;;;2.83;2.63;;;;;;;18.65;54.25;98018.06;10518035;28;20090;-59
2022/11/13 06:08:03;;;;;;;3.17;2.88;;;;;;;18.64;54.16;98002.97;10519467;28;20044;-59
2022/11/13 06:13:42;;;;;;;3.58;3.28;;;;;;;18.64;53.27;98010.25;10502904;28;20067;-58
2022/11/13 06:19:20;;;;;;;;;;;;;;;18.61;51.29;98000.03;10526518;28;20093;-57
2022/11/13 06:24:59;;;;;;;3.40;3.10;;;;;;;18.59;52.56;98000.31;10538147;28;20371;-60
2022/11/13 06:30:37;;;;;;;3.70;3.40;;;;;;;18.59;52.72;97994.94;10514005;28;20426;-58
2022/11/13 06:36:21;;;;;;;3.85;3.55;;;;;;;18.59;52.99;97992.22;10532488;28;20126;-58
2022/11/13 06:41:59;;;;;;;3.97;3.67;;;;;;;18.59;53.00;97992.22;10515316;28;20060;-58
2022/11/13 06:47:38;;;;;;;3.92;3.53;;;;;;;18.58;53.24;98001.41;10503237;28;20048;-59
2022/11/13 06:53:16;;;;;;;3.53;3.23;;;;;;;18.60;53.56;98010.00;10529609;28;20419;-59
2022/11/13 06:58:55;;;;;;;;;;;;;;;18.61;53.76;97989.25;10510161;28;20300;-59
2022/11/13 07:04:34;;;;;;;3.58;3.28;;;;;;;18.62;54.02;97980.03;10494752;28;19921;-59
2022/11/13 07:10:12;;;;;;;4.38;3.33;;;;;;;18.62;54.04;97975.47;10501303;28;20060;-58
2022/11/13 07:15:50;;;;;;;3.83;3.50;;;;;;;18.63;54.11;97974.34;10498050;28;20437;-58
2022/11/13 07:21:28;;;;;;;3.10;2.85;;;;;;;18.65;54.13;97980.28;10527127;28;20086;-60
2022/11/13 07:27:07;;;;;;;4.30;3.80;;;;;;;18.67;53.93;97985.38;10503686;28;20049;-59
2022/11/13 07:32:46;;;;;;;3.72;3.40;;;;;;;18.68;53.99;97981.56;10505912;28;20063;-59
2022/11/13 07:38:25;;;;;;;4.25;3.50;;;;;;;18.69;53.77;97989.41;10519403;28;20047;-59
2022/11/13 07:44:04;;;;;;;3.55;3.20;;;;;;;18.71;53.86;97979.09;10521916;28;20510;-59
2022/11/13 07:49:42;;;;;;;3.95;3.28;;;;;;;18.72;53.93;97975.34;10519485;28;20129;-58
2022/11/13 07:55:21;;;;;;;3.55;3.25;;;;;;;18.75;54.17;97973.94;10514362;28;20052;-56
2022/11/13 08:01:03;;;;;;;3.70;3.40;;;;;;;18.77;54.02;97979.84;10529827;28;20051;-59
2022/11/13 08:06:41;;;;;;;4.75;3.53;;;;;;;18.78;54.20;97987.66;10505156;28;20048;-58
2022/11/13 08:12:19;;;;;;;6.72;3.45;;;;;;;18.79;54.44;97985.75;10503951;28;20077;-59
2022/11/13 08:17:59;;;;;;;5.85;3.25;;;;;;;18.82;54.67;97989.78;10512009;28;20048;-60
2022/11/13 08:23:39;;;;;;;4.35;3.70;;;;;;;18.84;54.80;97987.63;10510232;28;20060;-58
2022/11/13 08:29:18;;;;;;;5.93;3.40;;;;;;;18.84;55.40;97993.84;10515400;28;20407;-60
2022/11/13 08:34:56;;;;;;;3.50;3.08;;;;;;;18.87;55.57;97995.16;10490918;28;20063;-57
2022/11/13 08:40:34;;;;;;;3.93;3.53;;;;;;;18.87;55.56;97978.94;10505274;28;20415;-59
2022/11/13 08:46:13;;;;;;;;;;;;;;;18.87;55.37;97973.53;10515516;28;20056;-59
2022/11/13 08:51:51;;;;;;;6.60;3.90;;;;;;;18.87;55.09;97984.34;10494414;28;19920;-57
2022/11/13 08:57:29;;;;;;;8.47;5.70;;;;;;;18.88;54.89;97983.25;10513306;28;20120;-54
2022/11/13 09:03:10;;;;;;;8.88;6.53;;;;;;;18.74;50.55;97978.53;10504455;28;20056;-60
2022/11/13 09:08:48;;;;;;;13.82;10.65;;;;;;;18.76;53.70;97968.25;10502118;28;20056;-59
2022/11/13 09:14:27;;;;;;;29.05;16.95;;;;;;;18.81;55.00;97977.41;10515556;28;20052;-60
2022/11/13 09:20:06;;;;;;;66.22;32.28;;;;;;;18.83;55.98;97967.13;10507404;28;20040;-59
2022/11/13 09:25:45;;;;;;;109.88;42.00;;;;;;;18.86;56.69;97969.25;10537950;28;20048;-60
2022/11/13 09:31:23;;;;;;;79.10;33.78;;;;;;;18.69;53.38;97969.72;10515235;28;20055;-57
2022/11/13 09:37:01;;;;;;;81.38;33.47;;;;;;;18.74;56.20;97972.34;10516659;28;20052;-58
2022/11/13 09:42:41;;;;;;;75.28;30.65;;;;;;;18.81;57.31;97964.72;10527003;28;20056;-53
2022/11/13 09:48:41;;;;;;;58.05;23.30;;;;;;;18.85;57.89;97963.03;10524415;28;20491;-59
2022/11/13 09:54:19;;;;;;;59.45;25.20;;;;;;;18.88;58.02;97950.88;10537129;28;20059;-60
2022/11/13 10:00:13;;;;;;;27.48;16.52;;;;;;;18.61;50.05;97954.16;10520440;28;20040;-56
2022/11/13 10:06:02;;;;;;;37.22;17.42;;;;;;;18.61;52.66;97957.66;10515528;28;20093;-58
2022/11/13 10:11:57;;;;;;;34.15;14.95;;;;;;;18.67;53.26;97953.78;10514571;28;20063;-57
2022/11/13 10:17:40;;;;;;;32.67;15.15;;;;;;;18.71;52.38;97954.81;10496270;28;20060;-59
2022/11/13 10:23:23;;;;;;;26.92;13.85;;;;;;;18.69;50.00;97926.50;10500086;28;20051;-58
2022/11/13 10:29:10;;;;;;;28.52;12.90;;;;;;;18.68;49.46;97919.50;10526217;28;20510;-59
2022/11/13 10:35:11;;;;;;;25.33;11.88;;;;;;;18.69;51.45;97924.63;10522024;28;20052;-57
2022/11/13 10:40:50;;;;;;;33.75;15.23;;;;;;;18.73;52.38;97922.13;10511525;28;20514;-61
2022/11/13 10:46:29;;;;;;;20.98;12.00;;;;;;;18.74;51.03;97902.16;10525744;28;20445;-58
2022/11/13 10:52:19;;;;;;;47.97;20.20;;;;;;;18.74;52.64;97896.75;10523313;28;20040;-58
2022/11/13 10:58:00;;;;;;;24.65;12.80;;;;;;;18.76;52.72;97889.19;10519340;28;20040;-58
2022/11/13 11:03:48;;;;;;;28.20;12.88;;;;;;;18.67;49.41;97875.53;10536469;28;20102;-58
2022/11/13 11:09:29;;;;;;;35.73;14.33;;;;;;;18.69;52.25;97867.94;10514188;28;20211;-58
2022/11/13 11:15:21;;;;;;;23.50;12.23;;;;;;;18.73;51.58;97851.94;10507800;28;20052;-58
2022/11/13 11:21:05;;;;;;;39.30;15.25;;;;;;;18.74;52.83;97853.56;10492817;28;20060;-59
2022/11/13 11:26:49;;;;;;;32.70;13.60;;;;;;;18.75;53.37;97833.56;10521689;28;20048;-58
2022/11/13 11:32:40;;;;;;;43.30;15.57;;;;;;;18.78;53.86;97830.28;10515402;28;20120;-67
2022/11/13 11:38:51;;;;;;;32.80;11.85;;;;;;;18.80;54.11;97825.44;10477506;28;20048;-62
2022/11/13 11:44:34;;;;;;;23.40;10.68;;;;;;;18.80;54.49;97811.09;10448410;28;20531;-58
2022/11/13 11:50:17;;;;;;;22.48;10.38;;;;;;;18.81;55.08;97797.31;10472112;28;20119;-59
2022/11/13 11:56:20;;;;;;;23.77;10.23;;;;;;;18.83;55.79;97783.53;10490470;28;20044;-54
2022/11/13 12:02:17;;;;;;;23.15;10.00;;;;;;;18.85;56.76;97784.84;10486986;28;20112;-56
2022/11/13 12:08:17;;;;;;;21.15;9.68;;;;;;;18.88;56.98;97761.88;10476175;28;20053;-58
2022/11/13 12:14:15;;;;;;;20.13;9.48;;;;;;;18.88;56.91;97748.38;10492828;28;20060;-58
2022/11/13 12:20:19;;;;;;;20.67;9.02;;;;;;;18.89;56.89;97748.03;10478067;28;20033;-59
2022/11/13 12:26:19;;;;;;;16.25;8.95;;;;;;;18.91;56.89;97742.34;10453709;28;20052;-58
2022/11/13 12:32:11;;;;;;;16.73;8.35;;;;;;;18.90;56.59;97735.38;10464457;28;20099;-58
2022/11/13 12:37:57;;;;;;;16.17;8.80;;;;;;;18.90;56.19;97725.38;10514300;28;20425;-59
2022/11/13 12:43:51;;;;;;;10.82;7.95;;;;;;;18.89;55.60;97714.84;10520823;28;20083;-59
2022/11/13 12:49:34;;;;;;;11.27;6.95;;;;;;;18.83;52.87;97710.66;10534285;28;20065;-60
2022/11/13 12:55:27;;;;;;;12.00;7.15;;;;;;;18.83;53.90;97699.84;10501211;28;20059;-59
2022/11/13 13:01:09;;;;;;;10.82;7.00;;;;;;;18.84;53.72;97694.16;10506807;28;20052;-59
2022/11/13 13:06:51;;;;;;;11.98;6.95;;;;;;;18.85;53.69;97681.44;10541700;28;20082;-58
2022/11/13 13:12:41;;;;;;;9.25;6.25;;;;;;;18.86;54.03;97681.16;10537194;28;20424;-58
2022/11/13 13:18:19;;;;;;;9.35;6.30;;;;;;;18.87;54.25;97685.44;10513802;28;20052;-59
2022/11/13 13:24:07;;;;;;;9.48;7.03;;;;;;;18.88;53.56;97686.28;10522315;28;20086;-59
2022/11/13 13:29:45;;;;;;;10.73;6.03;;;;;;;18.87;54.84;97681.94;10501282;28;20530;-59
2022/11/13 13:35:42;;;;;;;7.80;5.68;;;;;;;18.87;55.56;97676.56;10525409;28;20052;-58
2022/11/13 13:41:29;;;;;;;9.40;5.85;;;;;;;18.87;55.65;97671.16;10518550;28;20052;-60
2022/11/13 13:47:27;;;;;;;8.95;5.72;;;;;;;18.89;56.18;97666.25;10512236;28;20044;-59
2022/11/13 13:53:05;;;;;;;10.20;5.68;;;;;;;18.89;56.39;97671.66;10485671;28;20056;-59
2022/11/13 13:58:43;;;;;;;;;;;;;;;18.88;56.93;97664.66;10530283;28;20491;-60
2022/11/13 14:04:23;;;;;;;7.33;5.43;;;;;;;18.87;56.79;97669.25;10506520;28;19920;-60
2022/11/13 14:10:16;;;;;;;7.68;5.45;;;;;;;18.86;56.78;97656.88;10494731;28;20491;-59
2022/11/13 14:16:05;;;;;;;11.90;7.85;;;;;;;18.84;54.29;97652.88;10527684;28;20036;-59
2022/11/13 14:21:45;;;;;;;12.32;9.40;;;;;;;18.76;51.87;97646.22;10495232;28;20511;-59
2022/11/13 14:27:25;;;;;;;9.75;7.10;;;;;;;18.75;53.60;97634.59;10528997;28;20048;-58
2022/11/13 14:33:08;;;;;;;7.68;6.88;;;;;;;18.76;54.27;97641.63;10530688;28;20068;-58
2022/11/13 14:38:47;;;;;;;10.02;7.55;;;;;;;18.76;54.45;97630.81;10535567;28;20051;-59
2022/11/13 14:44:28;;;;;;;8.52;6.40;;;;;;;18.77;54.65;97634.31;10500231;28;20048;-59
2022/11/13 14:50:21;;;;;;;11.85;6.53;;;;;;;18.77;54.96;97628.91;10481067;28;20052;-59
2022/11/13 14:56:07;;;;;;;10.82;6.57;;;;;;;18.78;55.07;97636.72;10505753;28;20059;-58
2022/11/13 15:01:54;;;;;;;9.75;6.10;;;;;;;18.78;55.29;97631.31;10524096;28;20052;-59
2022/11/13 15:07:33;;;;;;;7.63;6.30;;;;;;;18.78;55.52;97623.22;10491446;28;20549;-59
2022/11/13 15:13:13;;;;;;;10.02;6.35;;;;;;;18.78;55.69;97615.13;10536587;28;20047;-59
2022/11/13 15:18:57;;;;;;;7.45;6.05;;;;;;;18.79;55.61;97613.22;10525499;28;20488;-59
2022/11/13 15:24:35;;;;;;;10.48;7.13;;;;;;;18.80;55.96;97614.03;10531849;28;20056;-60
2022/11/13 15:30:14;;;;;;;10.13;9.07;;;;;;;18.77;53.83;97621.63;10527516;28;20407;-58
2022/11/13 15:35:52;;;;;;;;;;;;;;;18.78;55.69;97604.34;10502244;28;20048;-57
2022/11/13 15:41:32;;;;;;;9.65;7.47;;;;;;;18.82;54.98;97601.03;10498778;28;19924;-58
2022/11/13 15:47:24;;;;;;;11.00;8.10;;;;;;;18.82;54.89;97614.53;10517981;28;20055;-57
2022/11/13 15:53:03;;;;;;;11.07;8.02;;;;;;;18.84;54.79;97607.75;10526098;28;20056;-58
2022/11/13 15:58:41;;;;;;;9.48;7.28;;;;;;;18.86;54.70;97599.38;10525499;28;20101;-58
2022/11/13 16:04:20;;;;;;;12.75;9.60;;;;;;;18.88;54.54;97603.38;10519238;28;20052;-60
2022/11/13 16:09:58;;;;;;;12.20;8.73;;;;;;;18.91;54.66;97604.66;10511055;28;20055;-58
2022/11/13 16:15:36;;;;;;;12.82;8.65;;;;;;;18.93;54.77;97594.34;10519281;28;20047;-60
2022/11/13 16:21:16;;;;;;;11.70;8.52;;;;;;;18.96;54.92;97601.88;10521317;28;20051;-60
2022/11/13 16:26:56;;;;;;;13.32;8.30;;;;;;;18.99;55.18;97595.84;10514534;28;20048;-50
2022/11/13 16:32:34;;;;;;;9.43;7.95;;;;;;;19.02;55.52;97608.75;10534557;28;20051;-55
2022/11/13 16:38:13;;;;;;;17.60;14.63;;;;;;;18.90;49.70;97611.97;10489809;28;20109;-59
2022/11/13 16:43:51;;;;;;;15.68;13.20;;;;;;;18.85;49.71;97611.25;10530807;28;20491;-59
2022/11/13 16:49:29;;;;;;;11.63;9.38;;;;;;;18.92;51.83;97617.06;10523964;28;20052;-60
2022/11/13 16:55:07;;;;;;;14.75;10.25;;;;;;;18.97;51.92;97611.56;10516311;28;20044;-59
2022/11/13 17:00:46;;;;;;;12.38;9.73;;;;;;;19.02;52.27;97597.97;10535800;28;20052;-57
2022/11/13 17:06:26;;;;;;;10.15;8.95;;;;;;;19.06;52.35;97607.06;10525944;28;20048;-57
2022/11/13 17:12:05;;;;;;;10.57;9.13;;;;;;;19.08;52.57;97609.47;10513581;28;20045;-57
2022/11/13 17:17:44;;;;;;;10.05;8.98;;;;;;;19.11;52.73;97606.16;10525516;28;20056;-57
2022/11/13 17:23:22;;;;;;;9.50;8.50;;;;;;;19.14;52.87;97606.34;10503075;28;20052;-60
2022/11/13 17:29:04;;;;;;;12.05;9.20;;;;;;;19.15;52.73;97599.03;10527925;28;20053;-60
2022/11/13 17:34:42;;;;;;;9.80;8.77;;;;;;;19.15;52.51;97599.84;10532782;28;20060;-59
2022/11/13 17:40:20;;;;;;;14.55;8.80;;;;;;;19.17;52.63;97597.66;10522819;28;20059;-60
2022/11/13 17:45:59;;;;;;;9.52;7.88;;;;;;;19.20;52.98;97595.44;10506346;28;20051;-59
2022/11/13 17:51:37;;;;;;;10.50;7.85;;;;;;;19.20;53.23;97584.66;10524907;28;20044;-58
2022/11/13 17:57:15;;;;;;;8.27;7.13;;;;;;;19.20;53.47;97590.84;10535323;28;20082;-58
2022/11/13 18:02:55;;;;;;;11.80;7.85;;;;;;;19.22;53.64;97583.22;10523631;28;20412;-59
2022/11/13 18:08:33;;;;;;;8.38;7.30;;;;;;;19.23;53.73;97590.25;10531450;28;20510;-53
2022/11/13 18:14:11;;;;;;;8.40;7.53;;;;;;;19.25;53.93;97598.84;10530583;28;20036;-59
2022/11/13 18:19:51;;;;;;;8.85;7.15;;;;;;;19.25;54.05;97581.81;10523237;28;20294;-60
2022/11/13 18:25:29;;;;;;;9.65;7.95;;;;;;;19.27;54.20;97582.34;10505462;28;20517;-57
2022/11/13 18:31:16;;;;;;;10.73;7.28;;;;;;;19.29;54.31;97575.53;10498284;28;20056;-57
2022/11/13 18:36:54;;;;;;;8.95;7.78;;;;;;;19.30;54.76;97569.00;10532107;28;20407;-58
2022/11/13 18:42:32;;;;;;;8.05;7.25;;;;;;;19.32;54.78;97564.09;10499049;28;20048;-58
2022/11/13 18:48:11;;;;;;;8.80;7.57;;;;;;;19.34;54.88;97553.78;10494861;28;20052;-59
2022/11/13 18:53:50;;;;;;;7.72;6.82;;;;;;;19.38;54.99;97556.69;10525395;28;20052;-58
2022/11/13 18:59:29;;;;;;;7.82;7.03;;;;;;;19.39;54.97;97550.19;10521820;28;20036;-59
2022/11/13 19:05:08;;;;;;;8.05;7.25;;;;;;;19.41;55.07;97553.38;10534442;28;20044;-58
2022/11/13 19:10:46;;;;;;;8.30;7.25;;;;;;;19.44;55.05;97543.84;10510637;28;20066;-59
2022/11/13 19:16:28;;;;;;;8.65;7.40;;;;;;;19.46;55.10;97544.34;10505629;28;20047;-58
2022/11/13 19:22:06;;;;;;;7.90;7.10;;;;;;;19.49;55.18;97533.72;10508748;28;20086;-58
2022/11/13 19:27:45;;;;;;;7.60;6.80;;;;;;;19.51;55.15;97536.94;10487939;28;20044;-59
2022/11/13 19:33:24;;;;;;;8.10;6.63;;;;;;;19.53;55.25;97540.13;10496856;28;20064;-58
2022/11/13 19:39:03;;;;;;;7.68;6.88;;;;;;;19.56;55.33;97544.09;10501919;28;20056;-59
2022/11/13 19:44:42;;;;;;;7.85;7.05;;;;;;;19.58;55.30;97535.69;10486098;28;20048;-59
2022/11/13 19:50:20;;;;;;;9.10;7.18;;;;;;;19.62;55.33;97531.28;10508223;28;20048;-58
2022/11/13 19:55:58;;;;;;;7.32;6.70;;;;;;;19.63;55.45;97522.88;10506834;28;20044;-59
2022/11/13 20:01:36;;;;;;;7.72;6.53;;;;;;;19.66;55.53;97521.44;10536183;28;20523;-58
2022/11/13 20:07:14;;;;;;;10.47;6.83;;;;;;;19.68;55.43;97524.63;10492123;28;20048;-58
2022/11/13 20:12:53;;;;;;;7.53;6.75;;;;;;;19.72;55.61;97514.88;10495788;28;20056;-58
2022/11/13 20:18:31;;;;;;;8.02;6.53;;;;;;;19.73;55.62;97517.25;10495186;28;20047;-56
2022/11/13 20:24:09;;;;;;;8.20;6.20;;;;;;;19.74;55.64;97515.34;10522343;28;20075;-58
2022/11/13 20:29:48;;;;;;;;;;;;;;;19.74;55.76;97513.44;10489690;28;20057;-59
2022/11/13 20:35:26;;;;;;;7.28;6.03;;;;;;;19.76;55.58;97505.03;10515702;28;19927;-61
2022/11/13 20:41:05;;;;;;;7.38;6.05;;;;;;;19.77;55.73;97509.31;10518359;28;20170;-60
2022/11/13 20:46:44;;;;;;;8.30;6.60;;;;;;;19.77;55.88;97503.91;10481043;28;20049;-61
2022/11/13 20:52:22;;;;;;;7.35;6.25;;;;;;;19.78;55.96;97502.81;10510506;28;20431;-59
2022/11/13 20:58:00;;;;;;;6.70;5.90;;;;;;;19.78;55.96;97500.13;10514391;28;20098;-59
2022/11/13 21:03:41;;;;;;;7.32;6.22;;;;;;;19.80;56.12;97505.19;10523932;28;20103;-57
2022/11/13 21:09:19;;;;;;;6.45;5.72;;;;;;;19.81;56.01;97506.81;10518389;28;20557;-59
2022/11/13 21:14:57;;;;;;;6.75;5.63;;;;;;;19.82;55.95;97508.41;10496145;28;20046;-59
2022/11/13 21:20:36;;;;;;;5.95;5.35;;;;;;;19.82;56.14;97500.31;10512960;28;20049;-59
2022/11/13 21:26:15;;;;;;;6.55;5.43;;;;;;;19.83;56.25;97496.47;10532059;28;20085;-59
2022/11/13 21:31:56;;;;;;;6.60;5.65;;;;;;;19.82;56.44;97484.88;10518352;28;20053;-57
2022/11/13 21:37:34;;;;;;;5.95;5.20;;;;;;;19.83;56.62;97493.78;10511569;28;20086;-59
2022/11/13 21:43:12;;;;;;;7.00;5.82;;;;;;;19.82;56.76;97487.56;10513285;28;20178;-59
2022/11/13 21:48:59;;;;;;;6.40;5.22;;;;;;;19.82;56.78;97489.47;10512888;28;20102;-59
2022/11/13 21:54:38;;;;;;;5.90;5.20;;;;;;;19.81;56.87;97491.38;10553294;28;20036;-58
2022/11/13 22:00:16;;;;;;;6.32;5.40;;;;;;;19.82;56.94;97501.09;10557380;28;20048;-59
2022/11/13 22:06:14;;;;;;;;;;;;;;;19.81;57.25;97491.38;10535226;28;20404;-52
2022/11/13 22:11:53;;;;;;;5.43;4.93;;;;;;;19.80;57.08;97478.16;10531358;28;19920;-59
2022/11/13 22:17:31;;;;;;;5.72;5.00;;;;;;;19.80;57.25;97476.28;10511423;28;20052;-59
2022/11/13 22:23:09;;;;;;;5.57;4.75;;;;;;;19.79;57.24;97466.53;10533416;28;20105;-58
2022/11/13 22:28:48;;;;;;;5.45;4.80;;;;;;;19.79;57.44;97463.06;10530373;28;20063;-59
2022/11/13 22:34:27;;;;;;;5.32;4.82;;;;;;;19.79;57.27;97465.75;10478239;28;20118;-57
2022/11/13 22:40:06;;;;;;;5.30;4.80;;;;;;;19.77;57.32;97463.34;10496653;28;20067;-59
2022/11/13 22:45:45;;;;;;;5.07;4.65;;;;;;;19.77;57.39;97444.44;10539978;28;20052;-58
2022/11/13 22:51:26;;;;;;;5.13;4.72;;;;;;;19.76;57.48;97432.03;10492789;28;20060;-59
2022/11/13 22:57:04;;;;;;;5.20;4.70;;;;;;;19.76;57.40;97423.94;10506953;28;20052;-57
2022/11/13 23:02:42;;;;;;;5.00;4.53;;;;;;;19.75;57.51;97416.91;10515621;28;20045;-59
2022/11/13 23:08:20;;;;;;;5.20;4.70;;;;;;;19.75;57.53;97417.69;10533279;28;20282;-59
2022/11/13 23:14:04;;;;;;;5.40;4.90;;;;;;;19.74;57.63;97410.72;10511287;28;20057;-59
2022/11/13 23:19:42;;;;;;;4.97;4.57;;;;;;;19.73;57.53;97413.72;10516445;28;20380;-58
2022/11/13 23:25:21;;;;;;;5.00;4.50;;;;;;;19.73;57.63;97411.03;10526706;28;20040;-59
2022/11/13 23:30:59;;;;;;;5.03;4.55;;;;;;;19.72;57.84;97404.03;10502705;28;20487;-59
2022/11/13 23:36:37;;;;;;;6.40;5.00;;;;;;;19.71;57.62;97399.69;10509604;28;20051;-58
2022/11/13 23:42:15;;;;;;;5.03;4.30;;;;;;;19.70;57.86;97387.28;10518963;28;20530;-58
2022/11/13 23:47:54;;;;;;;5.43;4.50;;;;;;;19.71;57.91;97378.88;10502333;28;20048;-59
2022/11/13 23:53:32;;;;;;;4.80;3.80;;;;;;;19.70;57.81;97379.19;10495571;28;20055;-59
2022/11/13 23:59:10;;;;;;;5.03;4.50;;;;;;;19.68;57.99;97379.50;10527869;28;20040;-59
